sensor_id;sensor_type;location;lat;lon;timestamp;P1;durP1;ratioP1;P2;durP2;ratioP2
65936;SDS011;52707;52.086;5.418;2023-08-01T00:01:35;5.50;;;2.47;;
65936;SDS011;52707;52.086;5.418;2023-08-01T00:04:01;4.63;;;2.30;;
65936;SDS011;52707;52.086;5.418;2023-08-01T00:06:28;6.70;;;2.67;;
65936;SDS011;52707;52.086;5.418;2023-08-01T00:08:54;8.57;;;2.55;;
65936;SDS011;52707;52.086;5.418;2023-08-01T00:11:20;9.40;;;2.70;;
65936;SDS011;52707;52.086;5.418;2023-08-01T00:13:47;6.38;;;2.70;;
65936;SDS011;52707;52.086;5.418;2023-08-01T00:16:13;8.07;;;2.60;;
65936;SDS011;52707;52.086;5.418;2023-08-01T00:18:40;7.43;;;2.60;;
65936;SDS011;52707;52.086;5.418;2023-08-01T00:21:06;5.55;;;2.40;;
65936;SDS011;52707;52.086;5.418;2023-08-01T00:23:36;8.03;;;2.80;;
65936;SDS011;52707;52.086;5.418;2023-08-01T00:26:02;6.97;;;2.90;;
65936;SDS011;52707;52.086;5.418;2023-08-01T00:28:30;5.88;;;2.53;;
65936;SDS011;52707;52.086;5.418;2023-08-01T00:31:06;8.02;;;3.15;;
65936;SDS011;52707;52.086;5.418;2023-08-01T00:33:35;6.00;;;2.50;;
65936;SDS011;52707;52.086;5.418;2023-08-01T00:36:01;5.60;;;2.40;;
65936;SDS011;52707;52.086;5.418;2023-08-01T00:38:28;6.18;;;2.78;;
65936;SDS011;52707;52.086;5.418;2023-08-01T00:40:54;8.90;;;3.00;;
65936;SDS011;52707;52.086;5.418;2023-08-01T00:43:21;9.40;;;3.45;;
65936;SDS011;52707;52.086;5.418;2023-08-01T00:45:47;8.38;;;2.90;;
65936;SDS011;52707;52.086;5.418;2023-08-01T00:48:14;5.60;;;2.95;;
65936;SDS011;52707;52.086;5.418;2023-08-01T00:50:41;6.82;;;3.22;;
65936;SDS011;52707;52.086;5.418;2023-08-01T00:53:07;12.32;;;3.40;;
65936;SDS011;52707;52.086;5.418;2023-08-01T00:55:34;11.00;;;3.85;;
65936;SDS011;52707;52.086;5.418;2023-08-01T00:58:01;11.63;;;3.70;;
65936;SDS011;52707;52.086;5.418;2023-08-01T01:00:27;7.95;;;3.08;;
65936;SDS011;52707;52.086;5.418;2023-08-01T01:02:54;12.35;;;3.80;;
65936;SDS011;52707;52.086;5.418;2023-08-01T01:05:20;8.32;;;3.10;;
65936;SDS011;52707;52.086;5.418;2023-08-01T01:07:49;11.32;;;3.70;;
65936;SDS011;52707;52.086;5.418;2023-08-01T01:10:16;6.80;;;2.88;;
65936;SDS011;52707;52.086;5.418;2023-08-01T01:12:42;10.48;;;3.67;;
65936;SDS011;52707;52.086;5.418;2023-08-01T01:15:09;4.03;;;3.20;;
65936;SDS011;52707;52.086;5.418;2023-08-01T01:17:35;11.50;;;3.80;;
65936;SDS011;52707;52.086;5.418;2023-08-01T01:20:01;7.43;;;3.83;;
65936;SDS011;52707;52.086;5.418;2023-08-01T01:22:28;6.93;;;3.97;;
65936;SDS011;52707;52.086;5.418;2023-08-01T01:24:55;9.07;;;4.07;;
65936;SDS011;52707;52.086;5.418;2023-08-01T01:27:21;14.82;;;4.72;;
65936;SDS011;52707;52.086;5.418;2023-08-01T01:29:49;12.85;;;4.22;;
65936;SDS011;52707;52.086;5.418;2023-08-01T01:32:15;9.60;;;4.15;;
65936;SDS011;52707;52.086;5.418;2023-08-01T01:34:43;9.07;;;4.32;;
65936;SDS011;52707;52.086;5.418;2023-08-01T01:37:10;9.05;;;4.43;;
65936;SDS011;52707;52.086;5.418;2023-08-01T01:39:36;13.23;;;4.25;;
65936;SDS011;52707;52.086;5.418;2023-08-01T01:42:03;10.30;;;4.43;;
65936;SDS011;52707;52.086;5.418;2023-08-01T01:44:29;10.07;;;4.93;;
65936;SDS011;52707;52.086;5.418;2023-08-01T01:46:55;11.25;;;4.72;;
65936;SDS011;52707;52.086;5.418;2023-08-01T01:49:22;15.95;;;5.40;;
65936;SDS011;52707;52.086;5.418;2023-08-01T01:51:48;13.00;;;5.20;;
65936;SDS011;52707;52.086;5.418;2023-08-01T01:54:15;14.25;;;4.88;;
65936;SDS011;52707;52.086;5.418;2023-08-01T01:56:41;18.27;;;5.43;;
65936;SDS011;52707;52.086;5.418;2023-08-01T01:59:07;11.98;;;5.05;;
65936;SDS011;52707;52.086;5.418;2023-08-01T02:01:36;18.98;;;6.30;;
65936;SDS011;52707;52.086;5.418;2023-08-01T02:04:02;12.65;;;5.72;;
65936;SDS011;52707;52.086;5.418;2023-08-01T02:06:28;13.13;;;5.38;;
65936;SDS011;52707;52.086;5.418;2023-08-01T02:08:55;13.77;;;5.70;;
65936;SDS011;52707;52.086;5.418;2023-08-01T02:11:21;14.38;;;5.85;;
65936;SDS011;52707;52.086;5.418;2023-08-01T02:13:47;17.70;;;6.28;;
65936;SDS011;52707;52.086;5.418;2023-08-01T02:16:14;14.57;;;6.22;;
65936;SDS011;52707;52.086;5.418;2023-08-01T02:18:40;15.77;;;6.25;;
65936;SDS011;52707;52.086;5.418;2023-08-01T02:21:07;13.88;;;5.95;;
65936;SDS011;52707;52.086;5.418;2023-08-01T02:23:33;11.55;;;6.00;;
65936;SDS011;52707;52.086;5.418;2023-08-01T02:26:02;13.95;;;6.30;;
65936;SDS011;52707;52.086;5.418;2023-08-01T02:28:29;16.10;;;6.40;;
65936;SDS011;52707;52.086;5.418;2023-08-01T02:30:55;18.58;;;6.63;;
65936;SDS011;52707;52.086;5.418;2023-08-01T02:33:22;18.40;;;6.85;;
65936;SDS011;52707;52.086;5.418;2023-08-01T02:35:48;15.10;;;6.13;;
65936;SDS011;52707;52.086;5.418;2023-08-01T02:38:15;19.38;;;6.47;;
65936;SDS011;52707;52.086;5.418;2023-08-01T02:40:41;18.25;;;6.53;;
65936;SDS011;52707;52.086;5.418;2023-08-01T02:43:07;16.63;;;6.82;;
65936;SDS011;52707;52.086;5.418;2023-08-01T02:45:34;21.55;;;5.97;;
65936;SDS011;52707;52.086;5.418;2023-08-01T02:48:00;20.25;;;6.22;;
65936;SDS011;52707;52.086;5.418;2023-08-01T02:50:27;18.83;;;6.40;;
65936;SDS011;52707;52.086;5.418;2023-08-01T02:52:53;15.90;;;5.82;;
65936;SDS011;52707;52.086;5.418;2023-08-01T02:55:19;20.33;;;6.47;;
65936;SDS011;52707;52.086;5.418;2023-08-01T02:57:46;17.35;;;6.25;;
65936;SDS011;52707;52.086;5.418;2023-08-01T03:00:12;18.27;;;6.20;;
65936;SDS011;52707;52.086;5.418;2023-08-01T03:02:39;14.43;;;6.07;;
65936;SDS011;52707;52.086;5.418;2023-08-01T03:05:08;18.73;;;6.03;;
65936;SDS011;52707;52.086;5.418;2023-08-01T03:07:35;20.13;;;5.57;;
65936;SDS011;52707;52.086;5.418;2023-08-01T03:10:02;12.98;;;5.13;;
65936;SDS011;52707;52.086;5.418;2023-08-01T03:12:28;12.98;;;4.43;;
65936;SDS011;52707;52.086;5.418;2023-08-01T03:14:55;19.55;;;4.93;;
65936;SDS011;52707;52.086;5.418;2023-08-01T03:17:21;11.23;;;3.72;;
65936;SDS011;52707;52.086;5.418;2023-08-01T03:19:48;8.20;;;4.43;;
65936;SDS011;52707;52.086;5.418;2023-08-01T03:22:15;14.10;;;3.83;;
65936;SDS011;52707;52.086;5.418;2023-08-01T03:24:42;14.23;;;4.18;;
65936;SDS011;52707;52.086;5.418;2023-08-01T03:27:08;12.20;;;3.92;;
65936;SDS011;52707;52.086;5.418;2023-08-01T03:29:34;7.90;;;3.55;;
65936;SDS011;52707;52.086;5.418;2023-08-01T03:32:01;12.85;;;4.30;;
65936;SDS011;52707;52.086;5.418;2023-08-01T03:34:27;9.60;;;3.45;;
65936;SDS011;52707;52.086;5.418;2023-08-01T03:36:54;9.18;;;3.50;;
65936;SDS011;52707;52.086;5.418;2023-08-01T03:39:20;7.38;;;3.47;;
65936;SDS011;52707;52.086;5.418;2023-08-01T03:41:47;12.18;;;4.55;;
65936;SDS011;52707;52.086;5.418;2023-08-01T03:44:13;7.25;;;3.35;;
65936;SDS011;52707;52.086;5.418;2023-08-01T03:46:41;10.02;;;3.40;;
65936;SDS011;52707;52.086;5.418;2023-08-01T03:49:07;10.48;;;3.85;;
65936;SDS011;52707;52.086;5.418;2023-08-01T03:51:34;13.52;;;3.95;;
65936;SDS011;52707;52.086;5.418;2023-08-01T03:54:01;17.05;;;5.85;;
65936;SDS011;52707;52.086;5.418;2023-08-01T03:56:38;10.80;;;3.40;;
65936;SDS011;52707;52.086;5.418;2023-08-01T03:59:09;11.43;;;3.70;;
65936;SDS011;52707;52.086;5.418;2023-08-01T04:01:36;9.30;;;3.17;;
65936;SDS011;52707;52.086;5.418;2023-08-01T04:04:03;9.50;;;3.20;;
65936;SDS011;52707;52.086;5.418;2023-08-01T04:06:29;6.65;;;2.90;;
65936;SDS011;52707;52.086;5.418;2023-08-01T04:08:56;9.70;;;3.13;;
65936;SDS011;52707;52.086;5.418;2023-08-01T04:11:26;10.18;;;2.97;;
65936;SDS011;52707;52.086;5.418;2023-08-01T04:13:53;10.07;;;3.30;;
65936;SDS011;52707;52.086;5.418;2023-08-01T04:16:19;7.10;;;3.25;;
65936;SDS011;52707;52.086;5.418;2023-08-01T04:18:46;11.95;;;3.45;;
65936;SDS011;52707;52.086;5.418;2023-08-01T04:21:15;18.45;;;3.75;;
65936;SDS011;52707;52.086;5.418;2023-08-01T04:23:41;11.35;;;4.43;;
65936;SDS011;52707;52.086;5.418;2023-08-01T04:26:08;16.42;;;4.82;;
65936;SDS011;52707;52.086;5.418;2023-08-01T04:28:34;15.02;;;4.43;;
65936;SDS011;52707;52.086;5.418;2023-08-01T04:31:01;14.75;;;4.63;;
65936;SDS011;52707;52.086;5.418;2023-08-01T04:33:27;21.23;;;4.63;;
65936;SDS011;52707;52.086;5.418;2023-08-01T04:35:54;11.63;;;4.43;;
65936;SDS011;52707;52.086;5.418;2023-08-01T04:38:20;14.13;;;5.00;;
65936;SDS011;52707;52.086;5.418;2023-08-01T04:40:47;16.55;;;5.18;;
65936;SDS011;52707;52.086;5.418;2023-08-01T04:43:13;19.17;;;5.00;;
65936;SDS011;52707;52.086;5.418;2023-08-01T04:45:39;28.67;;;5.60;;
65936;SDS011;52707;52.086;5.418;2023-08-01T04:48:06;13.77;;;4.55;;
65936;SDS011;52707;52.086;5.418;2023-08-01T04:50:32;19.92;;;5.20;;
65936;SDS011;52707;52.086;5.418;2023-08-01T04:52:58;16.92;;;4.80;;
65936;SDS011;52707;52.086;5.418;2023-08-01T04:55:25;26.50;;;5.53;;
65936;SDS011;52707;52.086;5.418;2023-08-01T04:57:51;19.10;;;5.63;;
65936;SDS011;52707;52.086;5.418;2023-08-01T05:00:18;18.90;;;5.38;;
65936;SDS011;52707;52.086;5.418;2023-08-01T05:02:44;22.92;;;5.50;;
65936;SDS011;52707;52.086;5.418;2023-08-01T05:05:10;16.52;;;5.15;;
65936;SDS011;52707;52.086;5.418;2023-08-01T05:07:37;24.00;;;6.00;;
65936;SDS011;52707;52.086;5.418;2023-08-01T05:10:04;24.27;;;5.75;;
65936;SDS011;52707;52.086;5.418;2023-08-01T05:12:30;18.42;;;5.80;;
65936;SDS011;52707;52.086;5.418;2023-08-01T05:14:56;19.15;;;5.68;;
65936;SDS011;52707;52.086;5.418;2023-08-01T05:17:23;18.63;;;6.20;;
65936;SDS011;52707;52.086;5.418;2023-08-01T05:19:49;24.45;;;5.28;;
65936;SDS011;52707;52.086;5.418;2023-08-01T05:22:15;27.27;;;6.65;;
65936;SDS011;52707;52.086;5.418;2023-08-01T05:24:42;21.90;;;5.68;;
65936;SDS011;52707;52.086;5.418;2023-08-01T05:27:08;22.52;;;5.95;;
65936;SDS011;52707;52.086;5.418;2023-08-01T05:29:34;27.48;;;6.10;;
65936;SDS011;52707;52.086;5.418;2023-08-01T05:32:01;20.80;;;4.88;;
65936;SDS011;52707;52.086;5.418;2023-08-01T05:34:28;23.92;;;6.05;;
65936;SDS011;52707;52.086;5.418;2023-08-01T05:36:54;24.25;;;6.05;;
65936;SDS011;52707;52.086;5.418;2023-08-01T05:39:20;23.38;;;5.75;;
65936;SDS011;52707;52.086;5.418;2023-08-01T05:41:47;25.55;;;6.32;;
65936;SDS011;52707;52.086;5.418;2023-08-01T05:44:13;21.92;;;5.07;;
65936;SDS011;52707;52.086;5.418;2023-08-01T05:46:40;17.83;;;5.60;;
65936;SDS011;52707;52.086;5.418;2023-08-01T05:49:07;16.88;;;5.05;;
65936;SDS011;52707;52.086;5.418;2023-08-01T05:51:33;31.15;;;6.72;;
65936;SDS011;52707;52.086;5.418;2023-08-01T05:54:01;23.17;;;6.07;;
65936;SDS011;52707;52.086;5.418;2023-08-01T05:56:28;20.50;;;5.30;;
65936;SDS011;52707;52.086;5.418;2023-08-01T05:58:54;21.65;;;5.05;;
65936;SDS011;52707;52.086;5.418;2023-08-01T06:01:21;19.63;;;5.18;;
65936;SDS011;52707;52.086;5.418;2023-08-01T06:03:48;16.15;;;5.35;;
65936;SDS011;52707;52.086;5.418;2023-08-01T06:06:14;19.45;;;4.60;;
65936;SDS011;52707;52.086;5.418;2023-08-01T06:08:41;17.15;;;4.57;;
65936;SDS011;52707;52.086;5.418;2023-08-01T06:11:07;23.02;;;5.30;;
65936;SDS011;52707;52.086;5.418;2023-08-01T06:13:33;21.67;;;6.20;;
65936;SDS011;52707;52.086;5.418;2023-08-01T06:16:00;17.83;;;4.93;;
65936;SDS011;52707;52.086;5.418;2023-08-01T06:18:26;21.50;;;5.28;;
65936;SDS011;52707;52.086;5.418;2023-08-01T06:20:52;15.18;;;4.60;;
65936;SDS011;52707;52.086;5.418;2023-08-01T06:23:19;14.20;;;4.30;;
65936;SDS011;52707;52.086;5.418;2023-08-01T06:25:45;18.80;;;5.03;;
65936;SDS011;52707;52.086;5.418;2023-08-01T06:28:12;18.55;;;5.28;;
65936;SDS011;52707;52.086;5.418;2023-08-01T06:30:38;17.92;;;4.97;;
65936;SDS011;52707;52.086;5.418;2023-08-01T06:33:04;18.35;;;4.35;;
65936;SDS011;52707;52.086;5.418;2023-08-01T06:35:31;17.80;;;4.40;;
65936;SDS011;52707;52.086;5.418;2023-08-01T06:37:57;13.30;;;3.75;;
65936;SDS011;52707;52.086;5.418;2023-08-01T06:40:24;17.40;;;4.00;;
65936;SDS011;52707;52.086;5.418;2023-08-01T06:42:51;13.77;;;3.95;;
65936;SDS011;52707;52.086;5.418;2023-08-01T06:45:17;12.95;;;3.92;;
65936;SDS011;52707;52.086;5.418;2023-08-01T06:47:44;15.82;;;4.38;;
65936;SDS011;52707;52.086;5.418;2023-08-01T06:50:10;15.57;;;4.40;;
65936;SDS011;52707;52.086;5.418;2023-08-01T06:52:37;12.63;;;3.92;;
65936;SDS011;52707;52.086;5.418;2023-08-01T06:55:03;18.58;;;3.90;;
65936;SDS011;52707;52.086;5.418;2023-08-01T06:57:30;18.50;;;4.38;;
65936;SDS011;52707;52.086;5.418;2023-08-01T06:59:56;17.63;;;3.88;;
65936;SDS011;52707;52.086;5.418;2023-08-01T07:02:23;15.43;;;4.53;;
65936;SDS011;52707;52.086;5.418;2023-08-01T07:04:51;14.68;;;4.10;;
65936;SDS011;52707;52.086;5.418;2023-08-01T07:07:18;9.50;;;3.88;;
65936;SDS011;52707;52.086;5.418;2023-08-01T07:09:44;18.50;;;3.58;;
65936;SDS011;52707;52.086;5.418;2023-08-01T07:12:10;15.82;;;4.25;;
65936;SDS011;52707;52.086;5.418;2023-08-01T07:14:37;16.13;;;3.97;;
65936;SDS011;52707;52.086;5.418;2023-08-01T07:17:03;17.88;;;4.10;;
65936;SDS011;52707;52.086;5.418;2023-08-01T07:19:30;14.65;;;3.92;;
65936;SDS011;52707;52.086;5.418;2023-08-01T07:21:56;17.98;;;3.53;;
65936;SDS011;52707;52.086;5.418;2023-08-01T07:24:24;14.95;;;3.53;;
65936;SDS011;52707;52.086;5.418;2023-08-01T07:26:54;14.75;;;3.67;;
65936;SDS011;52707;52.086;5.418;2023-08-01T07:29:20;17.13;;;4.00;;
65936;SDS011;52707;52.086;5.418;2023-08-01T07:31:47;14.73;;;3.33;;
65936;SDS011;52707;52.086;5.418;2023-08-01T07:34:13;18.67;;;4.95;;
65936;SDS011;52707;52.086;5.418;2023-08-01T07:36:40;14.35;;;3.75;;
65936;SDS011;52707;52.086;5.418;2023-08-01T07:39:06;16.85;;;3.67;;
65936;SDS011;52707;52.086;5.418;2023-08-01T07:41:33;19.10;;;3.88;;
65936;SDS011;52707;52.086;5.418;2023-08-01T07:44:01;8.10;;;2.25;;
65936;SDS011;52707;52.086;5.418;2023-08-01T07:46:27;8.85;;;2.40;;
65936;SDS011;52707;52.086;5.418;2023-08-01T07:48:54;9.25;;;2.88;;
65936;SDS011;52707;52.086;5.418;2023-08-01T07:51:20;10.82;;;3.30;;
65936;SDS011;52707;52.086;5.418;2023-08-01T07:53:46;10.18;;;2.97;;
65936;SDS011;52707;52.086;5.418;2023-08-01T07:56:13;9.52;;;3.10;;
65936;SDS011;52707;52.086;5.418;2023-08-01T07:58:39;21.45;;;4.28;;
65936;SDS011;52707;52.086;5.418;2023-08-01T08:01:06;16.30;;;3.15;;
65936;SDS011;52707;52.086;5.418;2023-08-01T08:03:32;14.10;;;3.20;;
65936;SDS011;52707;52.086;5.418;2023-08-01T08:05:59;12.38;;;3.33;;
65936;SDS011;52707;52.086;5.418;2023-08-01T08:08:26;11.13;;;3.72;;
65936;SDS011;52707;52.086;5.418;2023-08-01T08:10:53;11.68;;;3.75;;
65936;SDS011;52707;52.086;5.418;2023-08-01T08:13:19;19.80;;;3.75;;
65936;SDS011;52707;52.086;5.418;2023-08-01T08:15:46;11.38;;;3.67;;
65936;SDS011;52707;52.086;5.418;2023-08-01T08:18:13;12.68;;;3.85;;
65936;SDS011;52707;52.086;5.418;2023-08-01T08:20:43;9.27;;;3.05;;
65936;SDS011;52707;52.086;5.418;2023-08-01T08:25:36;7.18;;;2.88;;
65936;SDS011;52707;52.086;5.418;2023-08-01T08:28:02;6.32;;;2.53;;
65936;SDS011;52707;52.086;5.418;2023-08-01T08:30:29;10.55;;;2.80;;
65936;SDS011;52707;52.086;5.418;2023-08-01T08:32:56;6.35;;;2.17;;
65936;SDS011;52707;52.086;5.418;2023-08-01T08:35:23;14.68;;;3.25;;
65936;SDS011;52707;52.086;5.418;2023-08-01T08:37:50;10.63;;;2.42;;
65936;SDS011;52707;52.086;5.418;2023-08-01T08:40:16;9.95;;;2.58;;
65936;SDS011;52707;52.086;5.418;2023-08-01T08:42:43;11.88;;;2.58;;
65936;SDS011;52707;52.086;5.418;2023-08-01T08:45:09;6.78;;;2.35;;
65936;SDS011;52707;52.086;5.418;2023-08-01T08:47:36;8.82;;;2.38;;
65936;SDS011;52707;52.086;5.418;2023-08-01T08:50:04;10.25;;;2.00;;
65936;SDS011;52707;52.086;5.418;2023-08-01T08:52:31;8.98;;;2.30;;
65936;SDS011;52707;52.086;5.418;2023-08-01T08:54:57;9.32;;;2.40;;
65936;SDS011;52707;52.086;5.418;2023-08-01T08:57:24;6.85;;;1.92;;
65936;SDS011;52707;52.086;5.418;2023-08-01T08:59:50;5.03;;;2.08;;
65936;SDS011;52707;52.086;5.418;2023-08-01T09:02:17;13.07;;;2.63;;
65936;SDS011;52707;52.086;5.418;2023-08-01T09:04:44;11.90;;;2.38;;
65936;SDS011;52707;52.086;5.418;2023-08-01T09:07:10;7.43;;;2.53;;
65936;SDS011;52707;52.086;5.418;2023-08-01T09:09:39;6.40;;;2.05;;
65936;SDS011;52707;52.086;5.418;2023-08-01T09:12:06;8.20;;;1.92;;
65936;SDS011;52707;52.086;5.418;2023-08-01T09:14:34;7.03;;;1.98;;
65936;SDS011;52707;52.086;5.418;2023-08-01T09:17:07;8.65;;;2.47;;
65936;SDS011;52707;52.086;5.418;2023-08-01T09:19:34;6.20;;;2.10;;
65936;SDS011;52707;52.086;5.418;2023-08-01T09:22:01;13.85;;;2.20;;
65936;SDS011;52707;52.086;5.418;2023-08-01T09:24:27;6.07;;;1.88;;
65936;SDS011;52707;52.086;5.418;2023-08-01T09:27:01;7.72;;;2.17;;
65936;SDS011;52707;52.086;5.418;2023-08-01T09:29:27;8.40;;;2.15;;
65936;SDS011;52707;52.086;5.418;2023-08-01T09:31:55;7.07;;;2.13;;
65936;SDS011;52707;52.086;5.418;2023-08-01T09:34:22;11.43;;;2.58;;
65936;SDS011;52707;52.086;5.418;2023-08-01T09:36:49;5.45;;;1.67;;
65936;SDS011;52707;52.086;5.418;2023-08-01T09:39:17;10.30;;;2.80;;
65936;SDS011;52707;52.086;5.418;2023-08-01T09:41:43;8.57;;;2.15;;
65936;SDS011;52707;52.086;5.418;2023-08-01T09:44:16;9.57;;;2.50;;
65936;SDS011;52707;52.086;5.418;2023-08-01T09:46:43;12.75;;;2.38;;
65936;SDS011;52707;52.086;5.418;2023-08-01T09:49:12;18.13;;;2.63;;
65936;SDS011;52707;52.086;5.418;2023-08-01T09:51:47;8.48;;;2.03;;
65936;SDS011;52707;52.086;5.418;2023-08-01T09:54:18;11.23;;;2.88;;
65936;SDS011;52707;52.086;5.418;2023-08-01T09:56:45;10.43;;;2.03;;
65936;SDS011;52707;52.086;5.418;2023-08-01T09:59:12;10.75;;;2.63;;
65936;SDS011;52707;52.086;5.418;2023-08-01T10:04:08;8.13;;;2.55;;
65936;SDS011;52707;52.086;5.418;2023-08-01T10:06:37;3.92;;;1.63;;
65936;SDS011;52707;52.086;5.418;2023-08-01T10:09:04;11.77;;;2.58;;
65936;SDS011;52707;52.086;5.418;2023-08-01T10:11:33;7.85;;;1.60;;
65936;SDS011;52707;52.086;5.418;2023-08-01T10:14:02;15.02;;;2.53;;
65936;SDS011;52707;52.086;5.418;2023-08-01T10:16:28;10.75;;;2.22;;
65936;SDS011;52707;52.086;5.418;2023-08-01T10:18:55;5.40;;;1.85;;
65936;SDS011;52707;52.086;5.418;2023-08-01T10:21:22;10.32;;;2.20;;
65936;SDS011;52707;52.086;5.418;2023-08-01T10:23:49;5.00;;;1.52;;
65936;SDS011;52707;52.086;5.418;2023-08-01T10:26:16;5.43;;;1.80;;
65936;SDS011;52707;52.086;5.418;2023-08-01T10:28:49;7.53;;;2.42;;
65936;SDS011;52707;52.086;5.418;2023-08-01T10:31:16;10.00;;;1.88;;
65936;SDS011;52707;52.086;5.418;2023-08-01T10:33:44;12.00;;;2.65;;
65936;SDS011;52707;52.086;5.418;2023-08-01T10:38:52;8.63;;;2.15;;
65936;SDS011;52707;52.086;5.418;2023-08-01T10:41:26;7.25;;;2.00;;
65936;SDS011;52707;52.086;5.418;2023-08-01T10:44:05;10.38;;;2.50;;
65936;SDS011;52707;52.086;5.418;2023-08-01T10:46:45;9.20;;;1.70;;
65936;SDS011;52707;52.086;5.418;2023-08-01T10:49:11;6.00;;;1.67;;
65936;SDS011;52707;52.086;5.418;2023-08-01T10:51:37;8.98;;;2.03;;
65936;SDS011;52707;52.086;5.418;2023-08-01T10:54:04;9.43;;;1.95;;
65936;SDS011;52707;52.086;5.418;2023-08-01T10:56:30;8.88;;;2.42;;
65936;SDS011;52707;52.086;5.418;2023-08-01T10:58:58;9.20;;;1.90;;
65936;SDS011;52707;52.086;5.418;2023-08-01T11:01:24;11.82;;;2.55;;
65936;SDS011;52707;52.086;5.418;2023-08-01T11:03:52;7.18;;;2.33;;
65936;SDS011;52707;52.086;5.418;2023-08-01T11:06:19;9.15;;;1.80;;
65936;SDS011;52707;52.086;5.418;2023-08-01T11:08:45;8.85;;;2.10;;
65936;SDS011;52707;52.086;5.418;2023-08-01T11:11:13;6.65;;;1.80;;
65936;SDS011;52707;52.086;5.418;2023-08-01T11:13:41;7.13;;;1.98;;
65936;SDS011;52707;52.086;5.418;2023-08-01T11:16:07;5.50;;;1.58;;
65936;SDS011;52707;52.086;5.418;2023-08-01T11:18:43;5.90;;;1.80;;
65936;SDS011;52707;52.086;5.418;2023-08-01T11:21:10;5.75;;;1.70;;
65936;SDS011;52707;52.086;5.418;2023-08-01T11:23:36;6.43;;;1.40;;
65936;SDS011;52707;52.086;5.418;2023-08-01T11:26:06;5.15;;;1.25;;
65936;SDS011;52707;52.086;5.418;2023-08-01T11:30:59;8.68;;;1.67;;
65936;SDS011;52707;52.086;5.418;2023-08-01T11:33:25;5.82;;;1.90;;
65936;SDS011;52707;52.086;5.418;2023-08-01T11:38:20;7.65;;;2.13;;
65936;SDS011;52707;52.086;5.418;2023-08-01T11:40:48;10.45;;;1.98;;
65936;SDS011;52707;52.086;5.418;2023-08-01T11:43:15;10.35;;;1.70;;
65936;SDS011;52707;52.086;5.418;2023-08-01T11:45:52;9.13;;;1.85;;
65936;SDS011;52707;52.086;5.418;2023-08-01T11:48:21;7.55;;;1.65;;
65936;SDS011;52707;52.086;5.418;2023-08-01T11:50:47;7.70;;;1.85;;
65936;SDS011;52707;52.086;5.418;2023-08-01T11:53:20;8.45;;;1.65;;
65936;SDS011;52707;52.086;5.418;2023-08-01T11:55:50;13.57;;;2.20;;
65936;SDS011;52707;52.086;5.418;2023-08-01T11:58:31;7.43;;;2.10;;
65936;SDS011;52707;52.086;5.418;2023-08-01T12:03:30;9.05;;;2.10;;
65936;SDS011;52707;52.086;5.418;2023-08-01T12:06:06;7.00;;;2.10;;
65936;SDS011;52707;52.086;5.418;2023-08-01T12:08:35;7.38;;;1.92;;
65936;SDS011;52707;52.086;5.418;2023-08-01T12:11:02;10.10;;;2.45;;
65936;SDS011;52707;52.086;5.418;2023-08-01T12:13:28;10.23;;;1.73;;
65936;SDS011;52707;52.086;5.418;2023-08-01T12:15:55;10.73;;;2.67;;
65936;SDS011;52707;52.086;5.418;2023-08-01T12:18:25;9.93;;;2.05;;
65936;SDS011;52707;52.086;5.418;2023-08-01T12:20:54;13.95;;;2.97;;
65936;SDS011;52707;52.086;5.418;2023-08-01T12:23:21;10.98;;;2.45;;
65936;SDS011;52707;52.086;5.418;2023-08-01T12:25:47;10.23;;;2.42;;
65936;SDS011;52707;52.086;5.418;2023-08-01T12:28:14;9.77;;;1.98;;
65936;SDS011;52707;52.086;5.418;2023-08-01T12:30:41;9.32;;;1.85;;
65936;SDS011;52707;52.086;5.418;2023-08-01T12:33:08;11.45;;;2.08;;
65936;SDS011;52707;52.086;5.418;2023-08-01T12:35:34;12.63;;;2.40;;
65936;SDS011;52707;52.086;5.418;2023-08-01T12:38:00;10.02;;;2.88;;
65936;SDS011;52707;52.086;5.418;2023-08-01T12:40:27;12.50;;;2.95;;
65936;SDS011;52707;52.086;5.418;2023-08-01T12:42:53;12.63;;;2.80;;
65936;SDS011;52707;52.086;5.418;2023-08-01T12:45:20;11.82;;;2.30;;
65936;SDS011;52707;52.086;5.418;2023-08-01T12:47:48;12.60;;;2.75;;
65936;SDS011;52707;52.086;5.418;2023-08-01T12:50:15;8.18;;;2.13;;
65936;SDS011;52707;52.086;5.418;2023-08-01T12:52:41;12.77;;;2.42;;
65936;SDS011;52707;52.086;5.418;2023-08-01T12:55:07;10.98;;;2.47;;
65936;SDS011;52707;52.086;5.418;2023-08-01T12:57:34;10.90;;;2.33;;
65936;SDS011;52707;52.086;5.418;2023-08-01T13:00:00;5.25;;;1.88;;
65936;SDS011;52707;52.086;5.418;2023-08-01T13:02:27;6.80;;;1.55;;
65936;SDS011;52707;52.086;5.418;2023-08-01T13:04:53;5.45;;;1.70;;
65936;SDS011;52707;52.086;5.418;2023-08-01T13:07:19;6.72;;;1.42;;
65936;SDS011;52707;52.086;5.418;2023-08-01T13:09:46;10.57;;;1.92;;
65936;SDS011;52707;52.086;5.418;2023-08-01T13:12:12;5.82;;;1.63;;
65936;SDS011;52707;52.086;5.418;2023-08-01T13:14:39;9.90;;;2.50;;
65936;SDS011;52707;52.086;5.418;2023-08-01T13:17:05;11.57;;;2.30;;
65936;SDS011;52707;52.086;5.418;2023-08-01T13:19:31;6.72;;;2.63;;
65936;SDS011;52707;52.086;5.418;2023-08-01T13:21:59;12.10;;;2.30;;
65936;SDS011;52707;52.086;5.418;2023-08-01T13:24:25;8.85;;;2.00;;
65936;SDS011;52707;52.086;5.418;2023-08-01T13:26:51;16.45;;;2.80;;
65936;SDS011;52707;52.086;5.418;2023-08-01T13:29:18;8.82;;;1.95;;
65936;SDS011;52707;52.086;5.418;2023-08-01T13:31:44;10.55;;;2.30;;
65936;SDS011;52707;52.086;5.418;2023-08-01T13:34:10;12.13;;;2.67;;
65936;SDS011;52707;52.086;5.418;2023-08-01T13:36:37;11.18;;;1.98;;
65936;SDS011;52707;52.086;5.418;2023-08-01T13:39:04;8.07;;;1.95;;
65936;SDS011;52707;52.086;5.418;2023-08-01T13:41:31;8.48;;;2.38;;
65936;SDS011;52707;52.086;5.418;2023-08-01T13:43:58;10.18;;;2.88;;
65936;SDS011;52707;52.086;5.418;2023-08-01T13:46:24;10.18;;;2.33;;
65936;SDS011;52707;52.086;5.418;2023-08-01T13:48:53;12.52;;;2.65;;
65936;SDS011;52707;52.086;5.418;2023-08-01T13:51:20;12.25;;;2.53;;
65936;SDS011;52707;52.086;5.418;2023-08-01T13:53:46;9.40;;;2.60;;
65936;SDS011;52707;52.086;5.418;2023-08-01T13:56:12;7.32;;;1.70;;
65936;SDS011;52707;52.086;5.418;2023-08-01T13:58:39;13.32;;;2.13;;
65936;SDS011;52707;52.086;5.418;2023-08-01T14:01:06;8.70;;;2.05;;
65936;SDS011;52707;52.086;5.418;2023-08-01T14:03:36;11.90;;;2.55;;
65936;SDS011;52707;52.086;5.418;2023-08-01T14:06:04;6.07;;;1.95;;
65936;SDS011;52707;52.086;5.418;2023-08-01T14:08:31;6.55;;;1.88;;
65936;SDS011;52707;52.086;5.418;2023-08-01T14:10:57;8.93;;;1.98;;
65936;SDS011;52707;52.086;5.418;2023-08-01T14:13:24;6.45;;;1.63;;
65936;SDS011;52707;52.086;5.418;2023-08-01T14:15:50;6.47;;;1.75;;
65936;SDS011;52707;52.086;5.418;2023-08-01T14:18:17;7.32;;;2.30;;
65936;SDS011;52707;52.086;5.418;2023-08-01T14:20:44;7.68;;;2.22;;
65936;SDS011;52707;52.086;5.418;2023-08-01T14:23:10;9.73;;;2.13;;
65936;SDS011;52707;52.086;5.418;2023-08-01T14:25:36;7.78;;;2.00;;
65936;SDS011;52707;52.086;5.418;2023-08-01T14:28:03;6.03;;;2.10;;
65936;SDS011;52707;52.086;5.418;2023-08-01T14:30:30;4.22;;;1.70;;
65936;SDS011;52707;52.086;5.418;2023-08-01T14:33:02;8.43;;;1.98;;
65936;SDS011;52707;52.086;5.418;2023-08-01T14:35:29;9.55;;;2.60;;
65936;SDS011;52707;52.086;5.418;2023-08-01T14:37:56;6.85;;;2.17;;
65936;SDS011;52707;52.086;5.418;2023-08-01T14:40:22;13.35;;;2.45;;
65936;SDS011;52707;52.086;5.418;2023-08-01T14:42:49;10.82;;;2.58;;
65936;SDS011;52707;52.086;5.418;2023-08-01T14:45:15;10.05;;;2.30;;
65936;SDS011;52707;52.086;5.418;2023-08-01T14:47:42;9.82;;;2.50;;
65936;SDS011;52707;52.086;5.418;2023-08-01T14:50:09;10.90;;;2.33;;
65936;SDS011;52707;52.086;5.418;2023-08-01T14:52:35;11.02;;;2.55;;
65936;SDS011;52707;52.086;5.418;2023-08-01T14:55:02;11.63;;;2.35;;